Latest Weather Observations for Fortescue Dave Forrest

IDW60801

Issued at 5:35 am WST Thursday 27 November 2014 (issued every 30 minutes, with the page automatically refreshed every 10 minutes)

About weather observations | Map of weather stations | Latest weather observations for WA | Other Formats
Station Details ID: 505056 Name: FORTESCUE DAVE FORREST Lat: -22.29 Lon: 119.43 Height: 474.6 m
Data from the previous 72 hours. | See also: Recent months for locations in Western Australia
Date/Time
WST
Temp
°C
App
Temp
°C
Dew
Point
Rel
Hum
%
Delta-T
°C
Wind Press
QNH
hPa
Press
MSL
hPa
Rain
since 9 am
mm
Dir
 
Spd
km/h
Gust
km/h
Spd
kts
Gust
kts
27/05:30am 20.7 19.8 18.1 85 1.6 E 20 28 11 15 1013.7 1010.2 6.8
27/05:00am 20.6 19.0 18.3 87 1.5 E 24 32 13 17 1013.3 1009.9 6.8
27/04:30am 20.4 17.6 18.3 88 1.3 ESE 30 41 16 22 1012.9 1009.5 6.8
27/04:03am 20.1 18.1 18.4 90 1.1 SE 26 35 14 19 1013.5 1010.0 6.8
27/04:00am 20.1 18.5 18.4 90 1.1 SE 24 35 13 19 1013.5 1010.0 6.8
27/03:30am 19.7 17.7 18.4 92 0.8 SE 26 37 14 20 1013.7 1010.2 6.8
27/03:13am 19.7 18.5 18.3 92 0.9 SE 22 33 12 18 1013.6 1010.1 6.8
27/03:00am 19.7 18.8 18.3 92 0.9 SE 20 33 11 18 1013.5 1010.0 6.8
27/02:30am 19.8 17.3 18.1 90 1.1 SE 28 46 15 25 1012.8 1009.3 6.8
27/02:27am 19.7 17.2 18.1 90 1.0 SE 28 46 15 25 1012.9 1009.5 6.8
27/02:00am 20.0 18.7 18.1 89 1.2 SE 22 37 12 20 1013.2 1009.8 6.8
27/01:30am 20.4 19.3 18.6 89 1.1 SE 22 37 12 20 1013.2 1009.8 6.8
27/01:00am 20.8 20.0 18.4 86 1.5 SSE 20 30 11 16 1013.2 1009.8 6.8
27/12:30am 20.9 19.8 18.6 87 1.5 SE 22 33 12 18 1013.1 1009.7 6.8
27/12:00am 21.2 20.5 19.4 89 1.2 ESE 22 32 12 17 1013.2 1009.8 6.8
 
Date/Time
WST
Temp
°C
App
Temp
°C
Dew
Point
Rel
Hum
%
Delta-T
°C
Wind Press
QNH
hPa
Press
MSL
hPa
Rain
since 9 am
mm
Dir
 
Spd
km/h
Gust
km/h
Spd
kts
Gust
kts
26/11:30pm 21.1 20.6 18.7 86 1.5 ESE 19 28 10 15 1013.8 1010.3 6.8
26/11:00pm 21.2 21.6 19.1 88 1.4 SSE 15 26 8 14 1013.8 1010.3 6.8
26/10:30pm 21.1 20.5 18.8 87 1.5 SSE 20 33 11 18 1013.2 1009.8 6.8
26/10:14pm 20.9 19.9 18.8 88 1.3 S 22 32 12 17 1013.0 1009.6 6.8
26/10:00pm 20.8 20.0 19.2 90 1.0 S 22 32 12 17 1012.9 1009.5 6.8
26/09:57pm 21.2 20.8 19.3 89 1.2 SSW 20 32 11 17 1013.2 1009.8 6.4
26/09:30pm 22.9 23.6 18.8 77 2.6 SSW 13 19 7 10 1013.8 1010.3 4.0
26/09:00pm 23.3 22.8 17.8 71 3.5 S 17 30 9 16 1013.2 1009.8 3.8
26/08:30pm 24.4 23.5 18.2 68 4.0 WSW 20 33 11 18 1012.8 1009.3 3.8
26/08:10pm 25.3 25.1 17.5 62 5.0 W 15 30 8 16 1011.8 1008.3 3.8
26/08:00pm 24.1 22.4 17.2 65 4.4 N 22 43 12 23 1011.5 1008.0 3.8
26/07:48pm 24.3 21.8 18.1 68 4.0 WSW 28 41 15 22 1010.7 1007.2 1.4
26/07:45pm 27.3 24.8 17.2 54 6.4 WSW 26 35 14 19 1010.6 1007.1 0.0
26/07:30pm 32.8 32.9 14.0 32 11.7 ENE 6 7 3 4 1008.7 1005.2 0.0
26/07:00pm 33.3 33.0 13.2 29 12.4 NNE 7 9 4 5 1008.4 1004.9 0.0
26/06:30pm 34.2 33.5 12.0 26 13.4 N 7 13 4 7 1008.6 1005.1 0.0
26/06:00pm 35.1 32.6 11.0 23 14.5 NE 15 22 8 12 1008.3 1004.8 0.0
26/05:30pm 35.7 33.1 10.7 22 14.9 NNE 15 22 8 12 1007.8 1004.3 0.0
26/05:00pm 35.9 32.0 10.8 22 15.1 NE 22 33 12 18 1007.6 1004.1 0.0
26/04:30pm 36.4 32.9 11.0 21 15.3 NE 20 39 11 21 1007.8 1004.3 0.0
26/04:00pm 36.2 33.0 11.1 22 15.1 NE 19 24 10 13 1008.2 1004.7 0.0
26/03:30pm 36.3 32.9 11.1 21 15.2 NNE 20 28 11 15 1008.4 1004.9 0.0
26/03:00pm 36.4 34.8 11.4 22 15.2 E 11 30 6 16 1008.7 1005.2 0.0
26/02:30pm 36.0 34.4 11.5 22 14.8 ENE 11 35 6 19 1009.2 1005.7 0.0
26/02:00pm 35.2 32.9 11.9 24 14.2 NNE 15 28 8 15 1009.5 1006.0 0.0
26/01:30pm 35.5 32.9 12.1 24 14.3 NE 17 28 9 15 1009.8 1006.3 0.0
26/01:00pm 34.4 31.9 12.2 26 13.5 NE 17 32 9 17 1010.4 1006.9 0.0
26/12:30pm 34.0 32.8 12.9 28 12.9 NNE 11 20 6 11 1010.8 1007.3 0.0
26/12:00pm 33.6 30.9 12.8 28 12.7 NE 19 30 10 16 1011.1 1007.7 0.0
26/11:30am 33.7 31.3 13.9 30 12.3 ENE 19 26 10 14 1011.7 1008.2 0.0
26/11:00am 32.0 29.3 13.4 32 11.4 NE 20 30 11 16 1012.1 1008.6 0.0
26/10:30am 32.0 29.7 14.0 33 11.1 ENE 19 33 10 18 1012.4 1008.9 0.0
26/10:00am 30.7 28.6 14.7 37 10.0 ENE 19 26 10 14 1012.8 1009.3 0.0
26/09:30am 29.2 26.3 15.0 42 8.8 E 24 33 13 18 1013.0 1009.6 0.0
26/09:00am 28.2 26.2 15.6 46 7.9 E 20 32 11 17 1013.5 1010.0 -
26/08:30am 26.8 25.5 15.9 51 6.8 E 17 22 9 12 1014.0 1010.5 -
26/08:00am 26.0 23.4 16.0 54 6.2 ENE 24 33 13 18 1013.9 1010.4 -
26/07:30am 25.0 - 17.3 62 4.9 - - - - - 1013.7 1010.2 -
26/02:00am 21.0 19.0 17.4 80 2.3 E 24 32 13 17 1013.7 1010.2 3.2
26/01:30am 20.9 20.4 17.9 83 1.9 E 17 26 9 14 1014.1 1010.6 3.0
26/01:25am 21.0 21.6 17.7 81 2.1 ESE 11 19 6 10 1014.5 1011.0 3.0
26/01:07am 20.7 21.9 17.3 81 2.1 E 7 19 4 10 1014.8 1011.4 2.0
26/01:00am 21.5 22.8 17.1 76 2.7 ENE 6 13 3 7 1015.2 1011.8 0.8
26/12:30am 20.7 19.9 17.2 80 2.2 SSE 17 24 9 13 1015.2 1011.8 0.6
26/12:00am 22.5 23.1 16.9 70 3.5 SSE 9 19 5 10 1015.5 1012.1 0.2
 
Date/Time
WST
Temp
°C
App
Temp
°C
Dew
Point
Rel
Hum
%
Delta-T
°C
Wind Press
QNH
hPa
Press
MSL
hPa
Rain
since 9 am
mm
Dir
 
Spd
km/h
Gust
km/h
Spd
kts
Gust
kts
25/11:30pm 23.0 20.9 16.3 66 4.2 ESE 22 35 12 19 1015.1 1011.7 0.2
25/11:00pm 23.1 21.5 16.6 67 4.1 E 20 30 11 16 1014.8 1011.4 0.2
25/10:30pm 22.6 17.2 16.9 70 3.6 ESE 41 50 22 27 1012.9 1009.5 0.2
25/10:06pm 22.4 17.3 17.6 74 3.0 ESE 41 59 22 32 1013.6 1010.1 0.2
25/10:00pm 22.5 17.0 17.6 74 3.1 E 43 59 23 32 1012.2 1008.7 0.2
25/09:50pm 22.4 18.2 18.0 76 2.8 ESE 37 57 20 31 1013.0 1009.6 0.2
25/09:32pm 24.0 19.8 17.1 65 4.3 E 35 54 19 29 1013.2 1009.8 0.2
25/09:30pm 24.0 19.0 17.0 65 4.4 E 39 54 21 29 1012.8 1009.3 0.2
25/09:07pm 23.6 17.8 17.5 68 3.9 E 44 63 24 34 1010.7 1007.2 0.2
25/09:00pm 23.4 16.7 17.9 71 3.5 E 50 63 27 34 1010.5 1007.0 0.2
25/08:51pm 24.3 20.6 17.4 65 4.4 E 33 52 18 28 1011.4 1007.9 0.2
25/08:50pm 24.3 20.8 17.4 65 4.4 ESE 32 44 17 24 1011.3 1007.8 0.2
25/08:44pm 24.5 23.9 17.6 65 4.4 E 17 22 9 12 1011.7 1008.2 0.2
25/08:37pm 25.1 20.5 17.0 60 5.1 ESE 37 56 20 30 1011.1 1007.7 0.2
25/08:30pm 25.1 19.1 16.9 60 5.2 ESE 44 57 24 31 1010.9 1007.5 0.2
25/08:00pm 26.6 21.1 16.7 54 6.3 E 41 56 22 30 1011.4 1007.9 0.2
25/07:47pm 26.7 21.1 16.6 54 6.4 E 41 59 22 32 1011.6 1008.1 0.2
25/07:30pm 26.9 21.0 16.7 53 6.5 ESE 43 54 23 29 1010.2 1006.7 0.0
25/07:23pm 26.9 21.2 15.1 48 7.3 ESE 39 50 21 27 1010.2 1006.7 0.0
25/07:07pm 28.1 21.7 14.4 43 8.4 E 41 54 22 29 1010.2 1006.7 0.0
25/07:01pm 27.9 22.6 14.3 43 8.3 E 35 54 19 29 1010.3 1006.8 0.0
25/07:00pm 27.7 22.9 14.7 45 8.0 E 33 54 18 29 1010.3 1006.8 0.0
25/06:40pm 30.9 28.1 13.3 34 10.7 ESE 20 30 11 16 1009.8 1006.3 0.0
25/06:30pm 30.1 27.3 12.6 34 10.5 SE 19 26 10 14 1009.8 1006.3 0.0
25/06:02pm 28.9 24.3 13.5 38 9.3 S 30 48 16 26 1009.4 1005.9 0.0
25/06:00pm 29.1 24.1 13.5 38 9.5 S 32 48 17 26 1009.5 1006.0 0.0
25/05:39pm 28.9 23.8 14.7 42 8.8 SSW 35 56 19 30 1009.3 1005.8 0.0
25/05:30pm 29.5 23.6 13.7 38 9.6 SW 37 54 20 29 1008.8 1005.3 0.0
25/05:09pm 31.2 26.2 12.2 31 11.4 SSW 30 48 16 26 1007.8 1004.3 0.0
25/05:00pm 33.1 30.0 13.4 30 12.2 SSW 22 32 12 17 1007.6 1004.1 0.0
25/04:44pm 36.4 32.5 9.4 19 15.9 E 20 28 11 15 1007.0 1003.4 0.0
25/04:30pm 35.8 31.7 11.3 22 14.8 E 24 32 13 17 1007.1 1003.5 0.0
25/04:26pm 36.1 32.0 11.5 22 14.9 ENE 24 32 13 17 1007.1 1003.5 0.0
25/04:00pm 38.6 35.8 8.7 16 17.6 NNE 13 24 7 13 1007.1 1003.5 0.0
25/03:30pm 39.1 37.6 8.6 16 17.9 ESE 6 13 3 7 1007.3 1003.8 0.0
25/03:00pm 38.8 34.7 8.7 16 17.7 ENE 20 32 11 17 1007.8 1004.3 0.0
25/02:30pm 40.7 37.2 8.6 14 19.0 NNE 17 24 9 13 1008.3 1004.8 0.0
25/02:00pm 39.3 35.8 8.6 15 18.1 N 17 26 9 14 1008.8 1005.3 0.0
25/01:30pm 39.8 36.2 8.5 15 18.4 NNE 17 26 9 14 1009.3 1005.8 0.0
25/01:00pm 39.8 37.8 8.7 15 18.4 NE 9 24 5 13 1009.7 1006.2 0.0
25/12:30pm 37.9 35.5 8.8 17 17.1 NW 11 22 6 12 1010.1 1006.6 0.0
25/12:00pm 38.0 34.9 9.0 17 17.1 NE 15 26 8 14 1010.6 1007.1 0.0
25/11:30am 38.5 36.1 8.8 16 17.5 NNE 11 22 6 12 1011.0 1007.6 0.0
25/11:00am 36.9 34.1 8.7 18 16.5 E 13 24 7 13 1011.5 1008.0 0.0
25/10:30am 36.2 33.1 9.0 19 15.9 NE 15 26 8 14 1011.8 1008.3 0.0
25/10:00am 35.9 31.6 9.3 19 15.6 NE 22 32 12 17 1012.1 1008.6 0.0
25/09:30am 35.5 30.8 9.1 20 15.4 ENE 24 35 13 19 1012.2 1008.7 0.0
25/09:00am 34.4 29.3 9.1 21 14.7 E 26 37 14 20 1012.5 1009.0 0.0
25/08:30am 33.6 28.1 9.0 22 14.2 E 28 39 15 21 1012.4 1008.9 0.0
25/08:00am 32.6 28.1 10.0 25 13.2 E 24 33 13 18 1012.4 1008.9 0.0
25/07:30am 30.3 28.2 11.3 31 11.2 SE 13 19 7 10 1012.5 1009.0 0.0
25/07:00am 29.4 27.7 11.3 32 10.6 SSE 11 17 6 9 1012.3 1008.8 0.0
25/06:30am 28.4 27.3 10.7 33 10.3 SSE 7 15 4 8 1012.2 1008.7 0.0
25/06:00am 27.2 27.0 10.4 35 9.6 ENE 2 6 1 3 1011.9 1008.4 0.0
25/05:30am 24.8 24.5 10.2 39 8.2 NW 2 2 1 1 1011.7 1008.2 0.0
25/05:00am 25.7 24.9 9.8 36 9.0 ESE 4 4 2 2 1011.3 1007.8 0.0
25/04:30am 25.6 25.3 10.0 37 8.8 E 2 4 1 2 1011.0 1007.6 0.0
25/04:00am 26.0 24.7 9.8 36 9.2 SSE 7 17 4 9 1010.8 1007.3 0.0
25/03:30am 26.5 25.1 9.6 34 9.5 NNE 7 11 4 6 1010.5 1007.0 0.0
25/03:00am 27.1 25.7 9.6 33 9.9 NE 7 11 4 6 1010.5 1007.0 0.0
25/02:30am 27.4 25.7 9.9 33 10.0 NNE 9 13 5 7 1010.4 1006.9 0.0
25/02:00am 28.1 25.7 9.9 32 10.4 NE 13 15 7 8 1010.4 1006.9 0.0
25/01:30am 29.2 27.8 9.7 29 11.2 NNE 7 11 4 6 1010.4 1006.9 0.0
25/01:00am 27.4 24.1 9.4 32 10.2 SE 17 20 9 11 1010.9 1007.5 0.0
25/12:30am 28.9 26.2 9.1 29 11.2 N 13 15 7 8 1010.6 1007.1 0.0
25/12:00am 30.5 28.2 8.9 26 12.3 NW 11 15 6 8 1010.9 1007.5 0.0
 
Date/Time
WST
Temp
°C
App
Temp
°C
Dew
Point
Rel
Hum
%
Delta-T
°C
Wind Press
QNH
hPa
Press
MSL
hPa
Rain
since 9 am
mm
Dir
 
Spd
km/h
Gust
km/h
Spd
kts
Gust
kts
24/11:30pm 31.0 28.9 8.3 24 12.8 NW 9 15 5 8 1011.1 1007.7 0.0
24/11:00pm 31.6 29.0 7.8 22 13.4 NW 11 17 6 9 1011.3 1007.8 0.0
24/10:30pm 32.1 28.7 7.6 21 13.7 NW 15 20 8 11 1011.4 1007.9 0.0
24/10:00pm 32.9 28.5 7.4 20 14.3 NW 20 28 11 15 1011.4 1007.9 0.0
24/09:30pm 31.4 29.7 7.5 22 13.3 N 6 7 3 4 1010.9 1007.5 0.0
24/09:00pm 31.8 30.1 7.4 22 13.6 WSW 6 9 3 5 1010.8 1007.3 0.0
24/08:30pm 32.6 30.6 7.0 20 14.3 ESE 7 7 4 4 1010.7 1007.2 0.0
24/08:00pm 33.1 30.7 7.2 20 14.5 SSE 9 19 5 10 1010.6 1007.1 0.0
24/07:30pm 34.2 30.3 7.3 19 15.2 SSE 17 30 9 16 1010.5 1007.0 0.0
24/07:00pm 35.4 29.9 5.9 16 16.4 S 24 43 13 23 1010.1 1006.6 0.0
24/06:45pm 35.4 29.2 6.2 16 16.3 SSW 28 46 15 25 1009.5 1006.0 0.0
24/06:44pm 35.6 29.4 6.1 16 16.4 SSW 28 44 15 24 1009.6 1006.1 0.0
24/06:30pm 37.3 35.2 5.8 14 17.6 NNW 6 9 3 5 1009.5 1006.0 0.0
24/06:00pm 37.9 35.7 5.2 13 18.2 NNW 6 9 3 5 1009.1 1005.6 0.0
24/05:30pm 37.9 35.2 5.4 13 18.1 NNE 9 13 5 7 1009.1 1005.6 0.0
24/05:00pm 38.0 35.7 5.6 13 18.2 NNE 7 13 4 7 1008.8 1005.3 0.0
24/04:30pm 38.2 35.8 5.3 13 18.3 SW 7 13 4 7 1008.8 1005.3 0.0
24/04:00pm 38.7 35.9 5.2 13 18.7 WNW 9 15 5 8 1008.8 1005.3 0.0
24/03:30pm 38.7 36.8 5.1 12 18.7 NE 4 17 2 9 1009.1 1005.6 0.0
24/03:00pm 38.3 35.1 5.0 13 18.5 NE 11 20 6 11 1009.3 1005.8 0.0
24/02:30pm 38.3 34.7 4.9 13 18.5 ENE 13 28 7 15 1009.6 1006.1 0.0
24/02:00pm 39.5 36.7 5.0 12 19.3 WNW 9 26 5 14 1009.7 1006.2 0.0
24/01:30pm 38.9 36.4 4.8 12 18.9 NNW 7 22 4 12 1010.1 1006.6 0.0
24/01:00pm 38.3 35.0 4.8 12 18.6 ENE 11 22 6 12 1010.6 1007.1 0.0
24/12:30pm 38.4 36.2 5.1 13 18.5 NW 6 20 3 11 1011.1 1007.7 0.0
24/12:00pm 38.5 36.3 5.4 13 18.5 ESE 6 11 3 6 1011.5 1008.0 0.0
24/11:30am 37.5 34.3 5.1 13 17.9 NNE 11 19 6 10 1011.9 1008.4 0.0
24/11:00am 37.4 32.6 4.9 13 17.9 ESE 19 33 10 18 1012.4 1008.9 0.0
24/10:30am 36.9 32.5 4.7 13 17.7 SE 17 26 9 14 1012.8 1009.3 0.0
24/10:00am 36.3 30.9 4.7 14 17.3 SE 22 32 12 17 1013.0 1009.6 0.0
24/09:30am 35.3 30.2 4.3 14 16.8 ESE 20 37 11 20 1013.2 1009.8 0.0
24/09:00am 34.3 28.5 4.2 15 16.2 ESE 24 39 13 21 1013.3 1009.9 0.0
24/08:30am 33.8 27.7 4.8 16 15.7 ESE 26 37 14 20 1013.3 1009.9 0.0
24/08:00am 32.4 26.3 4.9 17 14.8 SE 26 43 14 23 1013.2 1009.8 0.0
24/07:30am 31.4 24.9 4.5 18 14.3 SE 28 39 15 21 1013.2 1009.8 0.0
24/07:00am 30.4 24.9 4.0 18 13.8 S 22 35 12 19 1013.1 1009.7 0.0
24/06:30am 29.2 24.2 3.4 19 13.3 S 19 30 10 16 1013.1 1009.7 0.0
24/06:00am 27.6 23.7 3.5 21 12.3 S 13 22 7 12 1012.8 1009.3 0.0

Other Formats:

Comma delimited format used in spreadsheet applications
http://www.bom.gov.au/fwo/IDW60801/IDW60801.99736.axf

JavaScript Object Notation format (JSON) in row-major order
http://www.bom.gov.au/fwo/IDW60801/IDW60801.99736.json